sensor_id;sensor_type;location;lat;lon;timestamp;temperature;humidity
16781;DHT22;8507;50.056;8.248;2023-06-22T00:00:54;24.40;99.90
16781;DHT22;8507;50.056;8.248;2023-06-22T00:03:22;24.20;99.90
16781;DHT22;8507;50.056;8.248;2023-06-22T00:05:48;24.00;99.90
16781;DHT22;8507;50.056;8.248;2023-06-22T00:08:14;23.90;99.90
16781;DHT22;8507;50.056;8.248;2023-06-22T00:10:44;24.00;99.90
16781;DHT22;8507;50.056;8.248;2023-06-22T00:13:10;24.10;99.90
16781;DHT22;8507;50.056;8.248;2023-06-22T00:15:37;24.30;99.90
16781;DHT22;8507;50.056;8.248;2023-06-22T00:18:04;24.40;99.90
16781;DHT22;8507;50.056;8.248;2023-06-22T00:20:30;24.40;99.90
16781;DHT22;8507;50.056;8.248;2023-06-22T00:22:57;24.40;99.90
16781;DHT22;8507;50.056;8.248;2023-06-22T00:25:23;24.50;99.90
16781;DHT22;8507;50.056;8.248;2023-06-22T00:27:49;24.50;99.90
16781;DHT22;8507;50.056;8.248;2023-06-22T00:30:16;24.50;99.90
16781;DHT22;8507;50.056;8.248;2023-06-22T00:32:43;24.50;99.90
16781;DHT22;8507;50.056;8.248;2023-06-22T00:35:08;24.50;99.90
16781;DHT22;8507;50.056;8.248;2023-06-22T00:37:35;24.60;99.90
16781;DHT22;8507;50.056;8.248;2023-06-22T00:40:01;24.60;99.90
16781;DHT22;8507;50.056;8.248;2023-06-22T00:42:27;24.70;99.90
16781;DHT22;8507;50.056;8.248;2023-06-22T00:44:52;24.70;99.90
16781;DHT22;8507;50.056;8.248;2023-06-22T00:47:18;24.70;99.90
16781;DHT22;8507;50.056;8.248;2023-06-22T00:49:45;24.70;99.90
16781;DHT22;8507;50.056;8.248;2023-06-22T00:52:13;24.70;99.90
16781;DHT22;8507;50.056;8.248;2023-06-22T00:54:40;24.60;99.90
16781;DHT22;8507;50.056;8.248;2023-06-22T00:57:12;24.40;99.90
16781;DHT22;8507;50.056;8.248;2023-06-22T00:59:42;24.40;99.90
16781;DHT22;8507;50.056;8.248;2023-06-22T01:02:08;24.30;99.90
16781;DHT22;8507;50.056;8.248;2023-06-22T01:04:36;24.20;99.90
16781;DHT22;8507;50.056;8.248;2023-06-22T01:07:13;24.00;99.90
16781;DHT22;8507;50.056;8.248;2023-06-22T01:09:56;24.10;99.90
16781;DHT22;8507;50.056;8.248;2023-06-22T01:12:23;24.00;99.90
16781;DHT22;8507;50.056;8.248;2023-06-22T01:14:55;23.40;99.90
16781;DHT22;8507;50.056;8.248;2023-06-22T01:17:23;22.60;99.90
16781;DHT22;8507;50.056;8.248;2023-06-22T01:19:51;22.30;99.90
16781;DHT22;8507;50.056;8.248;2023-06-22T01:22:23;21.90;99.90
16781;DHT22;8507;50.056;8.248;2023-06-22T01:24:55;21.70;99.90
16781;DHT22;8507;50.056;8.248;2023-06-22T01:27:39;21.80;99.90
16781;DHT22;8507;50.056;8.248;2023-06-22T01:30:07;22.10;99.90
16781;DHT22;8507;50.056;8.248;2023-06-22T01:32:37;22.30;99.90
16781;DHT22;8507;50.056;8.248;2023-06-22T01:35:05;22.20;99.90
16781;DHT22;8507;50.056;8.248;2023-06-22T01:37:33;21.90;99.90
16781;DHT22;8507;50.056;8.248;2023-06-22T01:39:58;22.10;99.90
16781;DHT22;8507;50.056;8.248;2023-06-22T01:42:25;22.30;99.90
16781;DHT22;8507;50.056;8.248;2023-06-22T01:44:52;22.50;99.90
16781;DHT22;8507;50.056;8.248;2023-06-22T01:47:18;22.50;99.90
16781;DHT22;8507;50.056;8.248;2023-06-22T01:49:44;22.50;99.90
16781;DHT22;8507;50.056;8.248;2023-06-22T01:52:11;22.00;99.90
16781;DHT22;8507;50.056;8.248;2023-06-22T01:54:37;21.50;99.90
16781;DHT22;8507;50.056;8.248;2023-06-22T01:57:03;21.20;99.90
16781;DHT22;8507;50.056;8.248;2023-06-22T01:59:35;21.00;99.90
16781;DHT22;8507;50.056;8.248;2023-06-22T02:02:07;21.10;99.90
16781;DHT22;8507;50.056;8.248;2023-06-22T02:04:46;21.20;99.90
16781;DHT22;8507;50.056;8.248;2023-06-22T02:07:14;21.20;99.90
16781;DHT22;8507;50.056;8.248;2023-06-22T02:09:44;21.20;99.90
16781;DHT22;8507;50.056;8.248;2023-06-22T02:12:11;21.10;99.90
16781;DHT22;8507;50.056;8.248;2023-06-22T02:14:38;21.20;99.90
16781;DHT22;8507;50.056;8.248;2023-06-22T02:17:04;21.30;99.90
16781;DHT22;8507;50.056;8.248;2023-06-22T02:19:35;21.50;99.90
16781;DHT22;8507;50.056;8.248;2023-06-22T02:22:01;21.50;99.90
16781;DHT22;8507;50.056;8.248;2023-06-22T02:24:27;21.50;99.90
16781;DHT22;8507;50.056;8.248;2023-06-22T02:26:52;21.50;99.90
16781;DHT22;8507;50.056;8.248;2023-06-22T02:29:18;21.80;99.90
16781;DHT22;8507;50.056;8.248;2023-06-22T02:31:43;21.90;99.90
16781;DHT22;8507;50.056;8.248;2023-06-22T02:34:09;22.10;99.90
16781;DHT22;8507;50.056;8.248;2023-06-22T02:36:34;22.30;99.90
16781;DHT22;8507;50.056;8.248;2023-06-22T02:39:00;22.30;99.90
16781;DHT22;8507;50.056;8.248;2023-06-22T02:41:27;22.10;99.90
16781;DHT22;8507;50.056;8.248;2023-06-22T02:43:52;21.80;99.90
16781;DHT22;8507;50.056;8.248;2023-06-22T02:46:18;21.80;99.90
16781;DHT22;8507;50.056;8.248;2023-06-22T02:48:43;21.70;99.90
16781;DHT22;8507;50.056;8.248;2023-06-22T02:51:09;21.60;99.90
16781;DHT22;8507;50.056;8.248;2023-06-22T02:53:35;21.60;99.90
16781;DHT22;8507;50.056;8.248;2023-06-22T02:56:03;21.70;99.90
16781;DHT22;8507;50.056;8.248;2023-06-22T02:58:31;21.80;99.90
16781;DHT22;8507;50.056;8.248;2023-06-22T03:01:04;22.00;99.90
16781;DHT22;8507;50.056;8.248;2023-06-22T03:03:30;22.10;99.90
16781;DHT22;8507;50.056;8.248;2023-06-22T03:05:56;22.30;99.90
16781;DHT22;8507;50.056;8.248;2023-06-22T03:08:21;22.40;99.90
16781;DHT22;8507;50.056;8.248;2023-06-22T03:10:47;22.00;99.90
16781;DHT22;8507;50.056;8.248;2023-06-22T03:13:12;21.80;99.90
16781;DHT22;8507;50.056;8.248;2023-06-22T03:15:38;21.70;99.90
16781;DHT22;8507;50.056;8.248;2023-06-22T03:18:03;21.70;99.90
16781;DHT22;8507;50.056;8.248;2023-06-22T03:20:29;21.70;99.90
16781;DHT22;8507;50.056;8.248;2023-06-22T03:22:59;21.80;99.90
16781;DHT22;8507;50.056;8.248;2023-06-22T03:25:24;21.80;99.90
16781;DHT22;8507;50.056;8.248;2023-06-22T03:27:50;21.70;99.90
16781;DHT22;8507;50.056;8.248;2023-06-22T03:30:15;21.60;99.90
16781;DHT22;8507;50.056;8.248;2023-06-22T03:32:43;21.50;99.90
16781;DHT22;8507;50.056;8.248;2023-06-22T03:35:10;21.40;99.90
16781;DHT22;8507;50.056;8.248;2023-06-22T03:37:38;21.40;99.90
16781;DHT22;8507;50.056;8.248;2023-06-22T03:40:04;21.30;99.90
16781;DHT22;8507;50.056;8.248;2023-06-22T03:42:34;21.40;99.90
16781;DHT22;8507;50.056;8.248;2023-06-22T03:45:01;21.40;99.90
16781;DHT22;8507;50.056;8.248;2023-06-22T03:47:26;21.50;99.90
16781;DHT22;8507;50.056;8.248;2023-06-22T03:49:52;21.50;99.90
16781;DHT22;8507;50.056;8.248;2023-06-22T03:52:21;21.40;99.90
16781;DHT22;8507;50.056;8.248;2023-06-22T03:54:47;21.50;99.90
16781;DHT22;8507;50.056;8.248;2023-06-22T03:57:13;21.50;99.90
16781;DHT22;8507;50.056;8.248;2023-06-22T03:59:39;21.60;99.90
16781;DHT22;8507;50.056;8.248;2023-06-22T04:02:04;21.70;99.90
16781;DHT22;8507;50.056;8.248;2023-06-22T04:04:30;22.00;99.90
16781;DHT22;8507;50.056;8.248;2023-06-22T04:06:55;22.10;99.90
16781;DHT22;8507;50.056;8.248;2023-06-22T04:09:21;22.10;99.90
16781;DHT22;8507;50.056;8.248;2023-06-22T04:11:47;22.20;99.90
16781;DHT22;8507;50.056;8.248;2023-06-22T04:14:12;22.20;99.90
16781;DHT22;8507;50.056;8.248;2023-06-22T04:16:38;22.10;99.90
16781;DHT22;8507;50.056;8.248;2023-06-22T04:19:03;22.10;99.90
16781;DHT22;8507;50.056;8.248;2023-06-22T04:21:29;22.20;99.90
16781;DHT22;8507;50.056;8.248;2023-06-22T04:23:55;22.40;99.90
16781;DHT22;8507;50.056;8.248;2023-06-22T04:26:20;22.50;99.90
16781;DHT22;8507;50.056;8.248;2023-06-22T04:28:47;22.50;99.90
16781;DHT22;8507;50.056;8.248;2023-06-22T04:31:17;22.70;99.90
16781;DHT22;8507;50.056;8.248;2023-06-22T04:33:44;22.80;99.90
16781;DHT22;8507;50.056;8.248;2023-06-22T04:36:10;23.00;99.90
16781;DHT22;8507;50.056;8.248;2023-06-22T04:38:39;23.10;99.90
16781;DHT22;8507;50.056;8.248;2023-06-22T04:41:04;23.20;99.90
16781;DHT22;8507;50.056;8.248;2023-06-22T04:43:30;23.10;99.90
16781;DHT22;8507;50.056;8.248;2023-06-22T04:45:56;23.00;99.90
16781;DHT22;8507;50.056;8.248;2023-06-22T04:48:29;23.00;99.90
16781;DHT22;8507;50.056;8.248;2023-06-22T04:50:58;23.00;99.90
16781;DHT22;8507;50.056;8.248;2023-06-22T04:53:28;22.80;99.90
16781;DHT22;8507;50.056;8.248;2023-06-22T04:55:55;22.70;99.90
16781;DHT22;8507;50.056;8.248;2023-06-22T04:58:20;22.80;99.90
16781;DHT22;8507;50.056;8.248;2023-06-22T05:00:47;23.00;99.90
16781;DHT22;8507;50.056;8.248;2023-06-22T05:03:12;23.20;99.90
16781;DHT22;8507;50.056;8.248;2023-06-22T05:05:38;23.40;99.90
16781;DHT22;8507;50.056;8.248;2023-06-22T05:08:04;23.60;99.90
16781;DHT22;8507;50.056;8.248;2023-06-22T05:10:32;23.70;99.90
16781;DHT22;8507;50.056;8.248;2023-06-22T05:12:58;23.80;99.90
16781;DHT22;8507;50.056;8.248;2023-06-22T05:15:23;23.90;99.90
16781;DHT22;8507;50.056;8.248;2023-06-22T05:17:53;24.20;99.90
16781;DHT22;8507;50.056;8.248;2023-06-22T05:20:19;24.30;99.90
16781;DHT22;8507;50.056;8.248;2023-06-22T05:22:44;24.30;99.90
16781;DHT22;8507;50.056;8.248;2023-06-22T05:25:11;24.30;99.90
16781;DHT22;8507;50.056;8.248;2023-06-22T05:27:37;24.40;99.90
16781;DHT22;8507;50.056;8.248;2023-06-22T05:30:07;24.40;99.90
16781;DHT22;8507;50.056;8.248;2023-06-22T05:32:33;24.50;99.90
16781;DHT22;8507;50.056;8.248;2023-06-22T05:34:59;24.30;99.90
16781;DHT22;8507;50.056;8.248;2023-06-22T05:37:24;23.80;99.90
16781;DHT22;8507;50.056;8.248;2023-06-22T05:39:50;23.60;99.90
16781;DHT22;8507;50.056;8.248;2023-06-22T05:42:16;23.60;99.90
16781;DHT22;8507;50.056;8.248;2023-06-22T05:44:41;23.80;99.90
16781;DHT22;8507;50.056;8.248;2023-06-22T05:47:07;23.90;99.90
16781;DHT22;8507;50.056;8.248;2023-06-22T05:49:33;23.80;99.90
16781;DHT22;8507;50.056;8.248;2023-06-22T05:51:59;24.00;99.90
16781;DHT22;8507;50.056;8.248;2023-06-22T05:54:25;24.00;99.90
16781;DHT22;8507;50.056;8.248;2023-06-22T05:56:50;23.90;99.90
16781;DHT22;8507;50.056;8.248;2023-06-22T05:59:17;23.90;99.90
16781;DHT22;8507;50.056;8.248;2023-06-22T06:01:42;24.00;99.90
16781;DHT22;8507;50.056;8.248;2023-06-22T06:04:08;23.70;99.90
16781;DHT22;8507;50.056;8.248;2023-06-22T06:06:34;23.90;99.90
16781;DHT22;8507;50.056;8.248;2023-06-22T06:09:00;23.70;99.90
16781;DHT22;8507;50.056;8.248;2023-06-22T06:11:25;23.60;99.90
16781;DHT22;8507;50.056;8.248;2023-06-22T06:13:51;24.00;99.90
16781;DHT22;8507;50.056;8.248;2023-06-22T06:16:17;24.30;99.90
16781;DHT22;8507;50.056;8.248;2023-06-22T06:18:42;24.50;99.90
16781;DHT22;8507;50.056;8.248;2023-06-22T06:21:08;24.60;99.90
16781;DHT22;8507;50.056;8.248;2023-06-22T06:23:33;24.40;99.90
16781;DHT22;8507;50.056;8.248;2023-06-22T06:25:59;24.30;99.90
16781;DHT22;8507;50.056;8.248;2023-06-22T06:28:27;24.50;99.90
16781;DHT22;8507;50.056;8.248;2023-06-22T06:30:52;24.60;99.90
16781;DHT22;8507;50.056;8.248;2023-06-22T06:33:19;24.50;99.90
16781;DHT22;8507;50.056;8.248;2023-06-22T06:35:46;24.80;99.90
16781;DHT22;8507;50.056;8.248;2023-06-22T06:38:11;24.90;99.90
16781;DHT22;8507;50.056;8.248;2023-06-22T06:40:37;25.10;99.90
16781;DHT22;8507;50.056;8.248;2023-06-22T06:43:02;24.90;99.90
16781;DHT22;8507;50.056;8.248;2023-06-22T06:45:28;25.00;99.90
16781;DHT22;8507;50.056;8.248;2023-06-22T06:47:54;24.90;99.90
16781;DHT22;8507;50.056;8.248;2023-06-22T06:50:20;25.40;99.90
16781;DHT22;8507;50.056;8.248;2023-06-22T06:52:46;25.50;99.90
16781;DHT22;8507;50.056;8.248;2023-06-22T06:55:11;25.60;99.90
16781;DHT22;8507;50.056;8.248;2023-06-22T06:57:41;25.80;99.90
16781;DHT22;8507;50.056;8.248;2023-06-22T07:00:08;25.30;99.90
16781;DHT22;8507;50.056;8.248;2023-06-22T07:02:38;25.50;99.90
16781;DHT22;8507;50.056;8.248;2023-06-22T07:05:04;25.30;99.90
16781;DHT22;8507;50.056;8.248;2023-06-22T07:07:31;25.50;99.90
16781;DHT22;8507;50.056;8.248;2023-06-22T07:09:56;25.20;99.90
16781;DHT22;8507;50.056;8.248;2023-06-22T07:12:22;25.40;99.90
16781;DHT22;8507;50.056;8.248;2023-06-22T07:14:48;25.50;99.90
16781;DHT22;8507;50.056;8.248;2023-06-22T07:17:14;25.70;99.90
16781;DHT22;8507;50.056;8.248;2023-06-22T07:19:39;25.80;99.90
16781;DHT22;8507;50.056;8.248;2023-06-22T07:22:05;25.90;99.90
16781;DHT22;8507;50.056;8.248;2023-06-22T07:24:31;26.20;99.90
16781;DHT22;8507;50.056;8.248;2023-06-22T07:26:57;26.30;99.90
16781;DHT22;8507;50.056;8.248;2023-06-22T07:29:24;26.20;99.90
16781;DHT22;8507;50.056;8.248;2023-06-22T07:31:50;25.90;99.90
16781;DHT22;8507;50.056;8.248;2023-06-22T07:34:17;25.90;99.90
16781;DHT22;8507;50.056;8.248;2023-06-22T07:36:43;26.10;99.90
16781;DHT22;8507;50.056;8.248;2023-06-22T07:39:09;26.30;99.90
16781;DHT22;8507;50.056;8.248;2023-06-22T07:41:34;26.20;99.90
16781;DHT22;8507;50.056;8.248;2023-06-22T07:44:00;26.20;99.90
16781;DHT22;8507;50.056;8.248;2023-06-22T07:46:26;26.30;99.90
16781;DHT22;8507;50.056;8.248;2023-06-22T07:48:51;26.30;99.90
16781;DHT22;8507;50.056;8.248;2023-06-22T07:51:17;26.40;99.90
16781;DHT22;8507;50.056;8.248;2023-06-22T07:53:43;26.80;99.90
16781;DHT22;8507;50.056;8.248;2023-06-22T07:56:13;26.60;99.90
16781;DHT22;8507;50.056;8.248;2023-06-22T07:58:39;26.70;99.90
16781;DHT22;8507;50.056;8.248;2023-06-22T08:01:05;26.70;99.90
16781;DHT22;8507;50.056;8.248;2023-06-22T08:03:31;26.70;99.90
16781;DHT22;8507;50.056;8.248;2023-06-22T08:05:57;26.90;99.90
16781;DHT22;8507;50.056;8.248;2023-06-22T08:08:24;26.60;99.90
16781;DHT22;8507;50.056;8.248;2023-06-22T08:10:49;27.00;99.90
16781;DHT22;8507;50.056;8.248;2023-06-22T08:13:15;27.10;99.90
16781;DHT22;8507;50.056;8.248;2023-06-22T08:15:41;27.40;99.90
16781;DHT22;8507;50.056;8.248;2023-06-22T08:18:06;27.60;99.90
16781;DHT22;8507;50.056;8.248;2023-06-22T08:20:32;27.90;99.90
16781;DHT22;8507;50.056;8.248;2023-06-22T08:22:58;28.20;99.90
16781;DHT22;8507;50.056;8.248;2023-06-22T08:25:26;27.80;99.90
16781;DHT22;8507;50.056;8.248;2023-06-22T08:27:51;28.20;99.90
16781;DHT22;8507;50.056;8.248;2023-06-22T08:30:17;27.40;99.90
16781;DHT22;8507;50.056;8.248;2023-06-22T08:32:44;26.90;99.90
16781;DHT22;8507;50.056;8.248;2023-06-22T08:35:09;27.60;99.90
16781;DHT22;8507;50.056;8.248;2023-06-22T08:37:35;27.90;99.90
16781;DHT22;8507;50.056;8.248;2023-06-22T08:40:03;27.60;99.90
16781;DHT22;8507;50.056;8.248;2023-06-22T08:42:30;27.40;99.90
16781;DHT22;8507;50.056;8.248;2023-06-22T08:44:56;27.30;99.90
16781;DHT22;8507;50.056;8.248;2023-06-22T08:47:22;27.80;99.90
16781;DHT22;8507;50.056;8.248;2023-06-22T08:49:48;28.50;99.90
16781;DHT22;8507;50.056;8.248;2023-06-22T08:52:14;28.90;99.90
16781;DHT22;8507;50.056;8.248;2023-06-22T08:54:40;29.00;99.90
16781;DHT22;8507;50.056;8.248;2023-06-22T08:57:06;28.10;99.90
16781;DHT22;8507;50.056;8.248;2023-06-22T08:59:32;28.00;99.90
16781;DHT22;8507;50.056;8.248;2023-06-22T09:01:57;28.40;99.90
16781;DHT22;8507;50.056;8.248;2023-06-22T09:04:23;28.70;99.90
16781;DHT22;8507;50.056;8.248;2023-06-22T09:06:49;29.00;99.90
16781;DHT22;8507;50.056;8.248;2023-06-22T09:09:17;28.30;99.90
16781;DHT22;8507;50.056;8.248;2023-06-22T09:11:43;27.70;99.90
16781;DHT22;8507;50.056;8.248;2023-06-22T09:14:09;28.40;99.90
16781;DHT22;8507;50.056;8.248;2023-06-22T09:16:35;28.90;99.90
16781;DHT22;8507;50.056;8.248;2023-06-22T09:19:00;29.10;99.90
16781;DHT22;8507;50.056;8.248;2023-06-22T09:21:26;28.90;99.90
16781;DHT22;8507;50.056;8.248;2023-06-22T09:23:51;29.60;99.90
16781;DHT22;8507;50.056;8.248;2023-06-22T09:26:21;29.60;99.90
16781;DHT22;8507;50.056;8.248;2023-06-22T09:28:47;29.90;99.90
16781;DHT22;8507;50.056;8.248;2023-06-22T09:31:13;30.00;99.90
16781;DHT22;8507;50.056;8.248;2023-06-22T09:33:40;29.60;99.90
16781;DHT22;8507;50.056;8.248;2023-06-22T09:36:06;29.30;99.90
16781;DHT22;8507;50.056;8.248;2023-06-22T09:38:36;29.60;99.90
16781;DHT22;8507;50.056;8.248;2023-06-22T09:41:02;29.80;99.90
16781;DHT22;8507;50.056;8.248;2023-06-22T09:43:27;30.10;99.90
16781;DHT22;8507;50.056;8.248;2023-06-22T09:45:53;29.90;99.90
16781;DHT22;8507;50.056;8.248;2023-06-22T09:48:19;29.00;99.90
16781;DHT22;8507;50.056;8.248;2023-06-22T09:50:44;28.30;99.90
16781;DHT22;8507;50.056;8.248;2023-06-22T09:53:10;28.40;99.90
16781;DHT22;8507;50.056;8.248;2023-06-22T09:55:35;28.70;99.90
16781;DHT22;8507;50.056;8.248;2023-06-22T09:58:01;29.30;99.90
16781;DHT22;8507;50.056;8.248;2023-06-22T10:00:26;29.50;99.90
16781;DHT22;8507;50.056;8.248;2023-06-22T10:02:52;29.60;99.90
16781;DHT22;8507;50.056;8.248;2023-06-22T10:05:18;29.30;99.90
16781;DHT22;8507;50.056;8.248;2023-06-22T10:07:44;29.80;99.90
16781;DHT22;8507;50.056;8.248;2023-06-22T10:10:10;30.00;99.90
16781;DHT22;8507;50.056;8.248;2023-06-22T10:12:37;30.00;99.90
16781;DHT22;8507;50.056;8.248;2023-06-22T10:15:03;29.70;99.90
16781;DHT22;8507;50.056;8.248;2023-06-22T10:17:29;29.60;99.90
16781;DHT22;8507;50.056;8.248;2023-06-22T10:19:54;29.30;99.90
16781;DHT22;8507;50.056;8.248;2023-06-22T10:22:20;29.30;99.90
16781;DHT22;8507;50.056;8.248;2023-06-22T10:24:45;29.40;99.90
16781;DHT22;8507;50.056;8.248;2023-06-22T10:27:11;29.60;99.90
16781;DHT22;8507;50.056;8.248;2023-06-22T10:29:37;30.00;99.90
16781;DHT22;8507;50.056;8.248;2023-06-22T10:32:03;29.80;99.90
16781;DHT22;8507;50.056;8.248;2023-06-22T10:34:29;30.30;99.90
16781;DHT22;8507;50.056;8.248;2023-06-22T10:36:54;30.70;99.90
16781;DHT22;8507;50.056;8.248;2023-06-22T10:39:20;31.20;99.90
16781;DHT22;8507;50.056;8.248;2023-06-22T10:41:45;30.80;99.90
16781;DHT22;8507;50.056;8.248;2023-06-22T10:44:11;31.10;99.90
16781;DHT22;8507;50.056;8.248;2023-06-22T10:46:37;30.30;99.90
16781;DHT22;8507;50.056;8.248;2023-06-22T10:49:03;30.40;99.90
16781;DHT22;8507;50.056;8.248;2023-06-22T10:51:28;30.30;99.90
16781;DHT22;8507;50.056;8.248;2023-06-22T10:53:54;30.10;99.90
16781;DHT22;8507;50.056;8.248;2023-06-22T10:56:19;29.80;99.90
16781;DHT22;8507;50.056;8.248;2023-06-22T10:58:45;30.10;99.90
16781;DHT22;8507;50.056;8.248;2023-06-22T11:01:11;30.10;99.90
16781;DHT22;8507;50.056;8.248;2023-06-22T11:03:36;31.00;99.90
16781;DHT22;8507;50.056;8.248;2023-06-22T11:06:02;31.60;99.90
16781;DHT22;8507;50.056;8.248;2023-06-22T11:08:28;31.40;99.90
16781;DHT22;8507;50.056;8.248;2023-06-22T11:10:54;31.40;99.90
16781;DHT22;8507;50.056;8.248;2023-06-22T11:13:19;31.90;99.90
16781;DHT22;8507;50.056;8.248;2023-06-22T11:15:45;32.30;99.90
16781;DHT22;8507;50.056;8.248;2023-06-22T11:18:10;32.00;99.90
16781;DHT22;8507;50.056;8.248;2023-06-22T11:20:36;32.40;99.90
16781;DHT22;8507;50.056;8.248;2023-06-22T11:23:07;32.70;99.90
16781;DHT22;8507;50.056;8.248;2023-06-22T11:25:33;32.00;99.90
16781;DHT22;8507;50.056;8.248;2023-06-22T11:28:02;32.20;99.90
16781;DHT22;8507;50.056;8.248;2023-06-22T11:30:28;31.70;99.90
16781;DHT22;8507;50.056;8.248;2023-06-22T11:32:53;31.70;99.90
16781;DHT22;8507;50.056;8.248;2023-06-22T11:35:19;31.90;99.90
16781;DHT22;8507;50.056;8.248;2023-06-22T11:37:44;32.30;99.90
16781;DHT22;8507;50.056;8.248;2023-06-22T11:40:10;32.50;99.90
16781;DHT22;8507;50.056;8.248;2023-06-22T11:42:36;32.30;99.90
16781;DHT22;8507;50.056;8.248;2023-06-22T11:45:04;32.40;99.90
16781;DHT22;8507;50.056;8.248;2023-06-22T11:47:30;32.70;99.90
16781;DHT22;8507;50.056;8.248;2023-06-22T11:49:55;32.80;99.90
16781;DHT22;8507;50.056;8.248;2023-06-22T11:52:21;32.30;99.90
16781;DHT22;8507;50.056;8.248;2023-06-22T11:54:46;32.40;99.90
16781;DHT22;8507;50.056;8.248;2023-06-22T11:57:12;33.00;99.90
16781;DHT22;8507;50.056;8.248;2023-06-22T11:59:38;32.90;99.90
16781;DHT22;8507;50.056;8.248;2023-06-22T12:02:03;33.20;99.90
16781;DHT22;8507;50.056;8.248;2023-06-22T12:04:30;33.00;99.90
16781;DHT22;8507;50.056;8.248;2023-06-22T12:06:56;31.70;99.90
16781;DHT22;8507;50.056;8.248;2023-06-22T12:09:22;32.40;99.90
16781;DHT22;8507;50.056;8.248;2023-06-22T12:11:47;33.10;99.90
16781;DHT22;8507;50.056;8.248;2023-06-22T12:14:13;33.00;99.90
16781;DHT22;8507;50.056;8.248;2023-06-22T12:16:38;32.70;99.90
16781;DHT22;8507;50.056;8.248;2023-06-22T12:19:04;33.30;99.90
16781;DHT22;8507;50.056;8.248;2023-06-22T12:21:29;33.20;99.90
16781;DHT22;8507;50.056;8.248;2023-06-22T12:23:55;33.80;99.90
16781;DHT22;8507;50.056;8.248;2023-06-22T12:26:21;34.10;99.90
16781;DHT22;8507;50.056;8.248;2023-06-22T12:28:47;34.10;99.90
16781;DHT22;8507;50.056;8.248;2023-06-22T12:31:13;34.50;99.90
16781;DHT22;8507;50.056;8.248;2023-06-22T12:33:39;34.60;99.90
16781;DHT22;8507;50.056;8.248;2023-06-22T12:36:05;34.50;99.90
16781;DHT22;8507;50.056;8.248;2023-06-22T12:38:30;34.20;99.90
16781;DHT22;8507;50.056;8.248;2023-06-22T12:40:56;33.80;99.90
16781;DHT22;8507;50.056;8.248;2023-06-22T12:43:21;33.20;99.90
16781;DHT22;8507;50.056;8.248;2023-06-22T12:45:47;33.60;99.90
16781;DHT22;8507;50.056;8.248;2023-06-22T12:48:12;34.10;99.90
16781;DHT22;8507;50.056;8.248;2023-06-22T12:50:38;34.10;99.90
16781;DHT22;8507;50.056;8.248;2023-06-22T12:53:04;34.30;99.90
16781;DHT22;8507;50.056;8.248;2023-06-22T12:55:31;34.40;99.90
16781;DHT22;8507;50.056;8.248;2023-06-22T12:57:57;34.30;99.90
16781;DHT22;8507;50.056;8.248;2023-06-22T13:00:23;34.50;99.90
16781;DHT22;8507;50.056;8.248;2023-06-22T13:02:48;34.60;99.90
16781;DHT22;8507;50.056;8.248;2023-06-22T13:05:14;34.70;99.90
16781;DHT22;8507;50.056;8.248;2023-06-22T13:07:39;33.90;99.90
16781;DHT22;8507;50.056;8.248;2023-06-22T13:10:05;33.90;99.90
16781;DHT22;8507;50.056;8.248;2023-06-22T13:12:31;34.00;99.90
16781;DHT22;8507;50.056;8.248;2023-06-22T13:14:56;34.40;99.90
16781;DHT22;8507;50.056;8.248;2023-06-22T13:17:22;34.70;99.90
16781;DHT22;8507;50.056;8.248;2023-06-22T13:19:48;34.40;99.90
16781;DHT22;8507;50.056;8.248;2023-06-22T13:22:33;34.60;99.90
16781;DHT22;8507;50.056;8.248;2023-06-22T13:25:05;34.30;99.90
16781;DHT22;8507;50.056;8.248;2023-06-22T13:27:31;33.80;99.90
16781;DHT22;8507;50.056;8.248;2023-06-22T13:29:56;33.70;99.90
16781;DHT22;8507;50.056;8.248;2023-06-22T13:32:22;34.20;99.90
16781;DHT22;8507;50.056;8.248;2023-06-22T13:34:48;34.50;99.90
16781;DHT22;8507;50.056;8.248;2023-06-22T13:37:13;34.70;99.90
16781;DHT22;8507;50.056;8.248;2023-06-22T13:39:39;34.80;99.90
16781;DHT22;8507;50.056;8.248;2023-06-22T13:42:05;34.90;99.90
16781;DHT22;8507;50.056;8.248;2023-06-22T13:44:31;34.70;99.90
16781;DHT22;8507;50.056;8.248;2023-06-22T13:46:56;34.40;99.90
16781;DHT22;8507;50.056;8.248;2023-06-22T13:49:22;34.40;99.90
16781;DHT22;8507;50.056;8.248;2023-06-22T13:51:48;34.50;99.90
16781;DHT22;8507;50.056;8.248;2023-06-22T13:54:14;34.50;99.90
16781;DHT22;8507;50.056;8.248;2023-06-22T13:56:40;34.50;99.90
16781;DHT22;8507;50.056;8.248;2023-06-22T13:59:05;34.60;99.90
16781;DHT22;8507;50.056;8.248;2023-06-22T14:01:34;33.90;99.90
16781;DHT22;8507;50.056;8.248;2023-06-22T14:04:00;34.10;99.90
16781;DHT22;8507;50.056;8.248;2023-06-22T14:06:27;33.70;99.90
16781;DHT22;8507;50.056;8.248;2023-06-22T14:08:53;33.90;99.90
16781;DHT22;8507;50.056;8.248;2023-06-22T14:11:18;34.00;99.90
16781;DHT22;8507;50.056;8.248;2023-06-22T14:13:44;34.00;99.90
16781;DHT22;8507;50.056;8.248;2023-06-22T14:16:09;33.90;99.90
16781;DHT22;8507;50.056;8.248;2023-06-22T14:18:35;33.80;99.90
16781;DHT22;8507;50.056;8.248;2023-06-22T14:21:00;33.80;99.90
16781;DHT22;8507;50.056;8.248;2023-06-22T14:23:27;33.50;99.90
16781;DHT22;8507;50.056;8.248;2023-06-22T14:25:52;33.40;99.90
16781;DHT22;8507;50.056;8.248;2023-06-22T14:28:18;33.30;99.90
16781;DHT22;8507;50.056;8.248;2023-06-22T14:30:44;33.20;99.90
16781;DHT22;8507;50.056;8.248;2023-06-22T14:33:09;33.10;99.90
16781;DHT22;8507;50.056;8.248;2023-06-22T14:35:35;33.00;99.90
16781;DHT22;8507;50.056;8.248;2023-06-22T14:38:00;32.80;99.90
16781;DHT22;8507;50.056;8.248;2023-06-22T14:40:26;32.70;99.90
16781;DHT22;8507;50.056;8.248;2023-06-22T14:42:51;32.60;99.90
16781;DHT22;8507;50.056;8.248;2023-06-22T14:45:17;32.50;99.90
16781;DHT22;8507;50.056;8.248;2023-06-22T14:47:42;32.40;99.90
16781;DHT22;8507;50.056;8.248;2023-06-22T14:50:08;32.50;99.90
16781;DHT22;8507;50.056;8.248;2023-06-22T14:52:34;32.50;99.90
16781;DHT22;8507;50.056;8.248;2023-06-22T14:54:59;32.40;99.90
16781;DHT22;8507;50.056;8.248;2023-06-22T14:57:25;32.40;99.90
16781;DHT22;8507;50.056;8.248;2023-06-22T14:59:51;32.30;99.90
16781;DHT22;8507;50.056;8.248;2023-06-22T15:02:16;32.30;99.90
16781;DHT22;8507;50.056;8.248;2023-06-22T15:04:42;32.30;99.90
16781;DHT22;8507;50.056;8.248;2023-06-22T15:07:08;32.20;99.90
16781;DHT22;8507;50.056;8.248;2023-06-22T15:09:33;32.20;99.90
16781;DHT22;8507;50.056;8.248;2023-06-22T15:11:59;32.10;99.90
16781;DHT22;8507;50.056;8.248;2023-06-22T15:14:27;32.00;99.90
16781;DHT22;8507;50.056;8.248;2023-06-22T15:16:52;31.90;99.90
16781;DHT22;8507;50.056;8.248;2023-06-22T15:19:18;31.90;99.90
16781;DHT22;8507;50.056;8.248;2023-06-22T15:21:44;31.90;99.90
16781;DHT22;8507;50.056;8.248;2023-06-22T15:24:09;31.80;99.90
16781;DHT22;8507;50.056;8.248;2023-06-22T15:26:35;31.40;99.90
16781;DHT22;8507;50.056;8.248;2023-06-22T15:29:00;31.20;99.90
16781;DHT22;8507;50.056;8.248;2023-06-22T15:31:27;30.90;99.90
16781;DHT22;8507;50.056;8.248;2023-06-22T15:33:52;30.20;99.90
16781;DHT22;8507;50.056;8.248;2023-06-22T15:36:18;30.20;99.90
16781;DHT22;8507;50.056;8.248;2023-06-22T15:38:44;30.60;99.90